Weather History for KOEB - November, 2013

Change the Weather History Date:

Saturday, November 30, 2013

  Actual Average (KBTL) Record (KBTL)
Temperature  
Mean Temperature 38 °F 33 °F  
Max Temperature 47 °F 41 °F - ()
Min Temperature 29 °F 25 °F - ()
Degree Days  
Heating Degree Days 28 32  
Month to date heating degree days 775  
Since 1 July heating degree days 1438  
Cooling Degree Days 0 0  
Month to date cooling degree days 0  
Year to date cooling degree days 578  
Moisture  
Dew Point 25 °F    
Average Humidity 63    
Maximum Humidity 75    
Minimum Humidity 47    
Precipitation  
Precipitation 0.00 in 0.08 in - ()
Month to date precipitation 2.83  
Year to date precipitation 31.16  
Sea Level Pressure  
Sea Level Pressure 30.25 in    
Wind  
Wind Speed 7 mph (South)    
Max Wind Speed 13 mph    
Max Gust Speed 22 mph    
Visibility 10 miles    
Events      
T = Trace of Precipitation, MM = Missing Value Source: NWS Daily Summary

Daily Weather History Graph

Daily Weather History Graph

Search for Another Location

Airport or City:

Trip Planner

Search our weather history database for the weather conditions in past years. The results will help you decide how hot, cold, wet, or windy it might be!

Date:

Astronomy

Nov. 30, 2013 Rise Set
Actual Time 7:47 AM EST 5:10 PM EST
Civil Twilight 7:16 AM EST 5:41 PM EST
Nautical Twilight 6:41 AM EST 6:15 PM EST
Astronomical Twilight 6:08 AM EST 6:49 PM EST
Moon 4:55 AM EST (11/30) 3:35 PM EST (11/30)
Length of Visible Light 10h 24m
Length of Day
9h 22m
Waning Crescent, 7% of the Moon is Illuminated
Nov 30
Waning Crescent
Dec 2
New
Dec 9
First Quarter
Dec 17
Full
Dec 25
Last Quarter

Hourly Weather History & Observations

Time (EST) Temp. Windchill Dew Point Humidity Pressure Visibility Wind Dir Wind Speed Gust Speed Precip Events Conditions
12:15 AM 29.1 °F 24.1 °F 21.2 °F 72% 30.48 in 10.0 mi SSE 4.6 mph - N/A   Clear
12:34 AM 29.3 °F 23.2 °F 21.4 °F 72% 30.47 in 10.0 mi SSE 5.8 mph - N/A   Clear
12:55 AM 29.5 °F 22.5 °F 21.2 °F 71% 30.47 in 10.0 mi SSE 6.9 mph - N/A   Clear
1:15 AM 29.3 °F 21.5 °F 21.2 °F 72% 30.46 in 10.0 mi SSE 8.1 mph - N/A   Clear
1:34 AM 29.3 °F 22.3 °F 21.0 °F 71% 30.45 in 10.0 mi SSE 6.9 mph - N/A   Scattered Clouds
1:55 AM 29.8 °F 22.2 °F 20.8 °F 69% 30.45 in 10.0 mi SSE 8.1 mph - N/A   Mostly Cloudy
2:15 AM 30.0 °F 22.4 °F 20.7 °F 68% 30.44 in 10.0 mi SSE 8.1 mph - N/A   Scattered Clouds
2:34 AM 30.0 °F 22.4 °F 20.8 °F 69% 30.44 in 10.0 mi SSE 8.1 mph - N/A   Scattered Clouds
2:55 AM 29.7 °F 22.8 °F 20.8 °F 70% 30.43 in 10.0 mi SSE 6.9 mph - N/A   Clear
3:15 AM 29.8 °F 23.0 °F 20.8 °F 69% 30.43 in 10.0 mi South 6.9 mph - N/A   Scattered Clouds
3:34 AM 29.8 °F 23.0 °F 21.0 °F 70% 30.42 in 10.0 mi SSE 6.9 mph - N/A   Scattered Clouds
3:55 AM 29.7 °F 22.8 °F 21.2 °F 71% 30.40 in 10.0 mi SSE 6.9 mph - N/A   Scattered Clouds
4:15 AM 29.8 °F 22.2 °F 21.6 °F 71% 30.40 in 10.0 mi South 8.1 mph - N/A   Scattered Clouds
4:34 AM 30.2 °F 23.4 °F 21.7 °F 71% 30.40 in 10.0 mi South 6.9 mph - N/A   Scattered Clouds
4:55 AM 30.2 °F 25.4 °F 21.7 °F 71% 30.39 in 10.0 mi South 4.6 mph - N/A   Scattered Clouds
5:14 AM 30.2 °F 25.4 °F 21.9 °F 71% 30.38 in 10.0 mi SSE 4.6 mph - N/A   Scattered Clouds
5:35 AM 30.2 °F 23.4 °F 21.9 °F 71% 30.38 in 10.0 mi SSE 6.9 mph - N/A   Scattered Clouds
5:55 AM 29.8 °F 23.9 °F 22.1 °F 73% 30.38 in 10.0 mi South 5.8 mph - N/A   Clear
6:14 AM 30.6 °F 24.7 °F 22.3 °F 71% 30.36 in 10.0 mi SSE 5.8 mph - N/A   Clear
6:35 AM 30.6 °F 23.8 °F 22.5 °F 72% 30.36 in 10.0 mi South 6.9 mph - N/A   Scattered Clouds
6:55 AM 30.9 °F 25.2 °F 22.6 °F 71% 30.36 in 10.0 mi South 5.8 mph - N/A   Scattered Clouds
7:14 AM 31.1 °F 25.4 °F 22.8 °F 71% 30.36 in 10.0 mi South 5.8 mph - N/A   Clear
7:35 AM 31.1 °F 24.5 °F 22.8 °F 71% 30.36 in 10.0 mi South 6.9 mph - N/A   Clear
7:55 AM 30.7 °F 24.1 °F 22.6 °F 72% 30.35 in 10.0 mi South 6.9 mph - N/A   Clear
8:14 AM 30.2 °F 23.4 °F 22.6 °F 73% 30.35 in 10.0 mi South 6.9 mph - N/A   Clear
8:35 AM 30.4 °F 24.5 °F 23.2 °F 75% 30.35 in 7.0 mi SSE 5.8 mph - N/A   Clear
8:55 AM 31.1 °F 25.4 °F 23.4 °F 73% 30.34 in 7.0 mi South 5.8 mph - N/A   Clear
9:14 AM 32.5 °F 26.2 °F 23.9 °F 70% 30.33 in 7.0 mi South 6.9 mph - N/A   Clear
9:35 AM 34.2 °F 27.5 °F 23.9 °F 66% 30.32 in 10.0 mi South 8.1 mph - N/A   Clear
9:55 AM 34.7 °F 29.6 °F 23.9 °F 65% 30.31 in 10.0 mi South 5.8 mph - N/A   Clear
10:14 AM 35.1 °F 28.6 °F 23.9 °F 64% 30.31 in 10.0 mi SSW 8.1 mph - N/A   Clear
10:35 AM 36.7 °F 30.5 °F 24.4 °F 61% 30.30 in 10.0 mi South 8.1 mph - N/A   Clear
10:54 AM 37.9 °F 30.9 °F 24.8 °F 59% 30.28 in 10.0 mi South 10.4 mph 16.1 mph N/A   Clear
11:15 AM 38.8 °F 32.6 °F 24.6 °F 57% 30.28 in 10.0 mi SSW 9.2 mph - N/A   Clear
11:35 AM 40.5 °F 34.6 °F 25.2 °F 54% 30.27 in 10.0 mi SSW 9.2 mph 16.1 mph N/A   Clear
11:54 AM 41.2 °F 36.0 °F 25.2 °F 53% 30.25 in 10.0 mi SSW 8.1 mph 16.1 mph N/A   Clear
12:15 PM 42.3 °F 35.5 °F 25.5 °F 52% 30.24 in 10.0 mi SW 12.7 mph 19.6 mph N/A   Clear
12:35 PM 43.7 °F 38.1 °F 26.1 °F 50% 30.22 in 10.0 mi SSW 10.4 mph - N/A   Clear
12:54 PM 44.4 °F 39.0 °F 26.4 °F 49% 30.21 in 10.0 mi SSW 10.4 mph 17.3 mph N/A   Clear
1:15 PM 44.8 °F 38.7 °F 26.6 °F 49% 30.19 in 10.0 mi SSW 12.7 mph 18.4 mph N/A   Clear
1:34 PM 45.7 °F 39.8 °F 27.0 °F 48% 30.19 in 10.0 mi SSW 12.7 mph 19.6 mph N/A   Clear
1:55 PM 46.4 °F 41.1 °F 27.3 °F 47% 30.18 in 10.0 mi SSW 11.5 mph 18.4 mph N/A   Clear
2:15 PM 46.6 °F - 27.5 °F 47% 30.17 in 10.0 mi SW 12.7 mph 19.6 mph N/A   Clear
2:34 PM 46.8 °F - 27.9 °F 48% 30.15 in 10.0 mi SW 12.7 mph 18.4 mph N/A   Clear
2:55 PM 46.9 °F - 28.0 °F 48% 30.14 in 10.0 mi SSW 12.7 mph 21.9 mph N/A   Clear
3:15 PM 46.9 °F - 28.0 °F 48% 30.13 in 10.0 mi SW 10.4 mph - N/A   Clear
3:34 PM 46.8 °F - 28.0 °F 48% 30.12 in 10.0 mi SW 10.4 mph 18.4 mph N/A   Clear
3:55 PM 46.4 °F 41.5 °F 27.7 °F 48% 30.12 in 10.0 mi SSW 10.4 mph 16.1 mph N/A   Clear
4:15 PM 45.5 °F 41.3 °F 27.7 °F 50% 30.12 in 10.0 mi SSW 8.1 mph - N/A   Clear
4:34 PM 44.4 °F 40.0 °F 27.7 °F 52% 30.12 in 10.0 mi SW 8.1 mph - N/A   Clear
4:55 PM 42.1 °F 38.4 °F 27.5 °F 56% 30.12 in 10.0 mi SSW 5.8 mph - N/A   Clear
5:14 PM 40.8 °F 36.9 °F 27.1 °F 58% 30.12 in 10.0 mi SSW 5.8 mph - N/A   Clear
5:35 PM 41.9 °F 40.0 °F 27.5 °F 57% 30.12 in 10.0 mi SSW 3.5 mph - N/A   Clear
5:55 PM 41.4 °F 38.4 °F 27.5 °F 58% 30.12 in 10.0 mi SSW 4.6 mph - N/A   Clear
6:14 PM 40.6 °F 36.7 °F 27.7 °F 60% 30.11 in 10.0 mi South 5.8 mph - N/A   Clear
6:35 PM 40.6 °F 37.5 °F 28.0 °F 61% 30.11 in 10.0 mi South 4.6 mph - N/A   Clear
6:54 PM 37.6 °F 34.0 °F 27.3 °F 66% 30.11 in 7.0 mi South 4.6 mph - N/A   Clear
7:15 PM 39.9 °F 35.8 °F 28.2 °F 63% 30.11 in 10.0 mi South 5.8 mph - N/A   Clear
7:35 PM 39.7 °F 34.9 °F 28.2 °F 63% 30.11 in 10.0 mi South 6.9 mph - N/A   Clear
7:54 PM 40.3 °F 35.5 °F 28.2 °F 62% 30.11 in 10.0 mi South 6.9 mph - N/A   Clear
8:15 PM 40.1 °F 35.3 °F 28.0 °F 62% 30.11 in 10.0 mi South 6.9 mph - N/A   Clear
8:35 PM 40.1 °F 35.3 °F 28.0 °F 62% 30.10 in 10.0 mi South 6.9 mph - N/A   Clear
8:54 PM 39.4 °F 35.2 °F 27.9 °F 63% 30.10 in 10.0 mi SSW 5.8 mph - N/A   Clear
9:15 PM 39.2 °F 35.0 °F 27.9 °F 64% 30.09 in 10.0 mi SSW 5.8 mph - N/A   Clear
9:35 PM 38.3 °F 33.2 °F 27.9 °F 66% 30.10 in 10.0 mi SSW 6.9 mph - N/A   Clear
9:54 PM 37.6 °F 32.3 °F 27.9 °F 68% 30.09 in 10.0 mi SSW 6.9 mph - N/A   Clear
10:15 PM 37.4 °F 31.4 °F 27.5 °F 67% 30.09 in 10.0 mi SSW 8.1 mph - N/A   Clear
10:35 PM 36.5 °F 31.0 °F 27.7 °F 70% 30.09 in 10.0 mi SW 6.9 mph - N/A   Clear
10:54 PM 37.2 °F 31.9 °F 28.2 °F 70% 30.09 in 10.0 mi SW 6.9 mph - N/A   Mostly Cloudy
11:15 PM 38.1 °F 33.7 °F 28.2 °F 68% 30.09 in 10.0 mi SW 5.8 mph - N/A   Overcast
11:35 PM 38.5 °F 34.1 °F 28.2 °F 67% 30.09 in 10.0 mi SW 5.8 mph - N/A   Overcast
11:54 PM 38.8 °F 34.6 °F 28.2 °F 66% 30.08 in 10.0 mi SW 5.8 mph - N/A   Overcast